Time;durP1;ratioP1;P1;durP2;ratioP2;P2;SDS_P1;SDS_P2;PMS_P1;PMS_P2;Temp;Humidity;BMP_temperature;BMP_pressure;BME280_temperature;BME280_humidity;BME280_pressure;Samples;Min_cycle;Max_cycle;Signal;HPM_P1;HPM_P2
2023/10/24 00:01:31;;;;;;;9.67;3.73;;;;;;;12.38;100.00;95505.78;5035920;28;20206;-69
2023/10/24 00:03:57;;;;;;;5.80;3.73;;;;;;;12.29;100.00;95521.03;5035326;28;20232;-68
2023/10/24 00:06:24;;;;;;;6.83;3.57;;;;;;;12.32;100.00;95510.06;5035914;28;20203;-68
2023/10/24 00:08:52;;;;;;;5.20;3.43;;;;;;;12.48;100.00;95504.34;5036295;28;20209;-68
2023/10/24 00:11:18;;;;;;;8.33;3.73;;;;;;;12.27;100.00;95488.72;5034745;28;20209;-71
2023/10/24 00:13:45;;;;;;;6.63;3.20;;;;;;;12.12;100.00;95483.84;5034789;28;20229;-70
2023/10/24 00:16:11;;;;;;;7.60;4.00;;;;;;;12.21;100.00;95494.03;5036084;28;20216;-68
2023/10/24 00:18:38;;;;;;;7.17;3.53;;;;;;;12.37;100.00;95486.50;5036136;28;20292;-69
2023/10/24 00:21:04;;;;;;;5.57;3.20;;;;;;;12.33;100.00;95482.63;5035295;28;20201;-69
2023/10/24 00:23:31;;;;;;;5.63;3.43;;;;;;;12.22;100.00;95479.81;5036470;28;20197;-70
2023/10/24 00:25:59;;;;;;;7.67;4.30;;;;;;;12.46;100.00;95473.84;5036162;28;20201;-69
2023/10/24 00:28:25;;;;;;;5.37;3.70;;;;;;;12.42;100.00;95478.75;5035702;28;20319;-68
2023/10/24 00:30:52;;;;;;;6.53;3.90;;;;;;;12.53;100.00;95477.31;5035651;28;20201;-71
2023/10/24 00:33:18;;;;;;;7.53;4.17;;;;;;;12.55;100.00;95481.38;5035981;28;20221;-71
2023/10/24 00:35:45;;;;;;;8.20;4.37;;;;;;;12.55;100.00;95486.66;5035122;28;20209;-68
2023/10/24 00:38:11;;;;;;;7.73;4.10;;;;;;;12.60;100.00;95486.03;5035562;28;20958;-71
2023/10/24 00:40:38;;;;;;;8.77;4.03;;;;;;;12.64;100.00;95479.28;5034962;28;20205;-71
2023/10/24 00:43:06;;;;;;;6.47;4.03;;;;;;;12.76;100.00;95479.25;5035395;28;20201;-68
2023/10/24 00:45:34;;;;;;;5.57;3.57;;;;;;;12.67;100.00;95492.91;5035791;28;20221;-69
2023/10/24 00:48:02;;;;;;;8.23;3.83;;;;;;;12.64;100.00;95495.97;5035810;28;20667;-70
2023/10/24 00:50:28;;;;;;;5.60;3.63;;;;;;;12.54;100.00;95482.38;5034866;28;20203;-69
2023/10/24 00:52:56;;;;;;;5.30;3.40;;;;;;;12.53;100.00;95488.69;5034809;28;20212;-69
2023/10/24 00:55:22;;;;;;;6.00;3.37;;;;;;;12.52;100.00;95487.03;5036135;28;20231;-71
2023/10/24 00:57:50;;;;;;;6.60;3.37;;;;;;;12.57;100.00;95484.59;5035676;28;20193;-68
2023/10/24 01:00:20;;;;;;;6.20;3.80;;;;;;;12.69;100.00;95475.03;5035042;28;20209;-68
2023/10/24 01:02:46;;;;;;;7.07;3.83;;;;;;;12.51;100.00;95469.59;5035929;28;20209;-68
2023/10/24 01:05:13;;;;;;;6.90;4.50;;;;;;;12.57;100.00;95468.75;5035450;28;20227;-70
2023/10/24 01:07:40;;;;;;;7.90;3.23;;;;;;;12.48;100.00;95469.19;5034790;28;20208;-71
2023/10/24 01:10:08;;;;;;;6.07;3.43;;;;;;;12.58;100.00;95483.59;5034853;28;20765;-68
2023/10/24 01:12:34;;;;;;;7.20;3.97;;;;;;;12.51;100.00;95476.69;5034768;28;20209;-69
2023/10/24 01:15:01;;;;;;;7.87;3.83;;;;;;;12.54;100.00;95479.75;5035327;28;20239;-70
2023/10/24 01:17:28;;;;;;;9.00;4.07;;;;;;;12.67;100.00;95481.53;5034636;28;20212;-70
2023/10/24 01:19:55;;;;;;;6.73;3.80;;;;;;;12.46;100.00;95484.41;5035341;28;20205;-69
2023/10/24 01:22:23;;;;;;;4.73;3.33;;;;;;;12.62;100.00;95491.91;5034314;28;20604;-70
2023/10/24 01:24:51;;;;;;;6.90;3.80;;;;;;;12.57;100.00;95481.97;5036470;28;20247;-71
2023/10/24 01:27:19;;;;;;;7.93;4.03;;;;;;;12.62;100.00;95492.72;5039084;28;20212;-71
2023/10/24 01:29:46;;;;;;;6.83;4.37;;;;;;;12.48;100.00;95479.75;5039551;28;20205;-70
2023/10/24 01:32:13;;;;;;;6.80;3.50;;;;;;;12.51;100.00;95463.47;5038777;28;20209;-71
2023/10/24 01:34:39;;;;;;;5.43;3.53;;;;;;;12.29;100.00;95454.19;5039104;28;20225;-68
2023/10/24 01:37:06;;;;;;;7.70;4.00;;;;;;;12.41;100.00;95457.81;5039372;28;20212;-68
2023/10/24 01:39:33;;;;;;;6.57;3.67;;;;;;;12.64;100.00;95452.88;5038502;28;20580;-68
2023/10/24 01:42:00;;;;;;;7.67;3.47;;;;;;;12.44;100.00;95468.78;5038468;28;20205;-69
2023/10/24 01:44:26;;;;;;;6.47;3.57;;;;;;;12.52;100.00;95475.69;5038976;28;20217;-71
2023/10/24 01:46:53;;;;;;;7.57;4.03;;;;;;;12.48;100.00;95469.97;5038418;28;20213;-69
2023/10/24 01:49:21;;;;;;;7.53;3.80;;;;;;;12.45;100.00;95475.69;5039012;28;20205;-69
2023/10/24 01:51:48;;;;;;;6.57;3.50;;;;;;;12.40;100.00;95480.78;5038036;28;20279;-69
2023/10/24 01:54:15;;;;;;;7.10;3.40;;;;;;;12.41;100.00;95489.50;5038513;28;20244;-71
2023/10/24 01:56:43;;;;;;;5.40;3.50;;;;;;;12.70;100.00;95479.28;5039287;28;20205;-71
2023/10/24 01:59:09;;;;;;;6.83;4.33;;;;;;;12.50;100.00;95461.84;5038478;28;20209;-68
2023/10/24 02:01:36;;;;;;;6.50;3.90;;;;;;;12.35;100.00;95426.94;5037239;28;20201;-71
2023/10/24 02:04:03;;;;;;;6.17;3.80;;;;;;;12.37;100.00;95406.41;5038429;28;20970;-72
2023/10/24 02:06:29;;;;;;;6.23;4.17;;;;;;;12.44;100.00;95400.09;5039623;28;20208;-68
2023/10/24 02:08:56;;;;;;;6.33;3.73;;;;;;;12.43;100.00;95390.53;5037906;28;20588;-70
2023/10/24 02:11:22;;;;;;;11.60;4.43;;;;;;;12.36;100.00;95402.16;5037987;28;20290;-70
2023/10/24 02:13:50;;;;;;;7.77;4.10;;;;;;;12.57;100.00;95446.81;5037634;28;20616;-70
2023/10/24 02:16:17;;;;;;;7.73;4.67;;;;;;;12.52;100.00;95471.19;5038448;28;20217;-70
2023/10/24 02:18:43;;;;;;;8.47;4.53;;;;;;;12.59;100.00;95463.25;5037822;28;20208;-70
2023/10/24 02:21:10;;;;;;;10.93;4.60;;;;;;;12.54;100.00;95466.53;5038112;28;20682;-70
2023/10/24 02:23:38;;;;;;;6.80;4.50;;;;;;;12.70;100.00;95473.97;5037355;28;20236;-68
2023/10/24 02:26:04;;;;;;;10.10;4.40;;;;;;;12.27;100.00;95472.06;5038330;28;20651;-71
2023/10/24 02:28:32;;;;;;;10.80;5.63;;;;;;;12.67;100.00;95468.31;5037279;28;20206;-69
2023/10/24 02:31:03;;;;;;;8.27;4.60;;;;;;;12.68;100.00;95449.59;5038066;28;20201;-71
2023/10/24 02:33:30;;;;;;;8.30;4.20;;;;;;;12.53;100.00;95466.75;5038021;28;20197;-68
2023/10/24 02:36:06;;;;;;;9.70;4.77;;;;;;;12.77;100.00;95477.44;5037352;28;20240;-69
2023/10/24 02:38:33;;;;;;;9.07;4.60;;;;;;;12.41;100.00;95473.66;5037532;28;20207;-71
2023/10/24 02:40:59;;;;;;;7.50;4.47;;;;;;;12.45;100.00;95462.47;5037422;28;20201;-71
2023/10/24 02:43:26;;;;;;;8.80;4.50;;;;;;;12.53;100.00;95450.88;5037311;28;20209;-71
2023/10/24 02:45:53;;;;;;;7.53;4.80;;;;;;;12.45;100.00;95464.31;5038186;28;20205;-68
2023/10/24 02:48:21;;;;;;;6.90;4.30;;;;;;;12.68;100.00;95457.53;5038178;28;20220;-70
2023/10/24 02:50:52;;;;;;;7.03;4.27;;;;;;;12.69;100.00;95456.53;5036800;28;20205;-70
2023/10/24 02:53:18;;;;;;;7.57;4.30;;;;;;;12.50;100.00;95446.00;5035698;28;20209;-70
2023/10/24 02:55:45;;;;;;;7.30;4.70;;;;;;;12.56;100.00;95451.25;5037259;28;20228;-69
2023/10/24 02:58:12;;;;;;;10.67;4.73;;;;;;;12.76;100.00;95438.78;5036764;28;20220;-68
2023/10/24 03:00:38;;;;;;;5.83;4.07;;;;;;;12.78;100.00;95436.78;5036906;28;20205;-70
2023/10/24 03:03:05;;;;;;;7.37;4.10;;;;;;;12.64;100.00;95444.94;5037774;28;20586;-69
2023/10/24 03:05:33;;;;;;;6.40;3.90;;;;;;;12.90;100.00;95424.53;5036607;28;20328;-71
2023/10/24 03:07:59;;;;;;;5.70;4.07;;;;;;;12.71;100.00;95435.97;5037449;28;21156;-71
2023/10/24 03:10:26;;;;;;;7.07;4.63;;;;;;;12.73;100.00;95426.00;5037351;28;20199;-70
2023/10/24 03:12:52;;;;;;;6.40;3.90;;;;;;;12.68;100.00;95422.34;5036099;28;20209;-72
2023/10/24 03:15:19;;;;;;;8.47;3.67;;;;;;;12.64;100.00;95421.16;5036454;28;20774;-71
2023/10/24 03:17:46;;;;;;;7.53;4.47;;;;;;;12.46;100.00;95423.66;5038254;28;20201;-69
2023/10/24 03:20:12;;;;;;;7.97;4.13;;;;;;;12.36;100.00;95434.66;5036684;28;20225;-69
2023/10/24 03:22:40;;;;;;;10.03;4.00;;;;;;;12.60;100.00;95430.50;5036987;28;20211;-71
2023/10/24 03:25:08;;;;;;;6.70;4.27;;;;;;;12.63;100.00;95436.19;5036989;28;20248;-72
2023/10/24 03:27:35;;;;;;;7.33;3.87;;;;;;;12.47;100.00;95430.56;5037978;28;20215;-70
2023/10/24 03:30:01;;;;;;;6.50;4.07;;;;;;;12.44;100.00;95426.50;5035948;28;20579;-69
2023/10/24 03:32:28;;;;;;;6.30;3.83;;;;;;;12.49;100.00;95426.69;5036265;28;20574;-69
2023/10/24 03:34:54;;;;;;;6.70;4.03;;;;;;;12.47;100.00;95423.44;5036442;28;20342;-69
2023/10/24 03:37:21;;;;;;;7.10;3.67;;;;;;;12.42;100.00;95414.53;5036424;28;21134;-69
2023/10/24 03:39:49;;;;;;;7.03;3.87;;;;;;;12.38;100.00;95422.03;5035779;28;20211;-71
2023/10/24 03:42:16;;;;;;;6.73;3.53;;;;;;;12.27;100.00;95427.97;5037163;28;20862;-71
2023/10/24 03:44:43;;;;;;;8.43;4.00;;;;;;;12.38;100.00;95432.59;5036421;28;20249;-68
2023/10/24 03:47:09;;;;;;;6.00;3.67;;;;;;;12.36;100.00;95433.88;5036150;28;20209;-72
2023/10/24 03:49:36;;;;;;;6.60;3.57;;;;;;;12.33;100.00;95428.97;5036985;28;20205;-69
2023/10/24 03:52:05;;;;;;;5.87;3.13;;;;;;;12.37;100.00;95435.47;5036329;28;20205;-69
2023/10/24 03:54:33;;;;;;;6.83;4.00;;;;;;;12.29;100.00;95439.13;5036487;28;20258;-69
2023/10/24 03:57:01;;;;;;;6.23;3.87;;;;;;;12.37;100.00;95436.28;5035924;28;20208;-72
2023/10/24 03:59:28;;;;;;;6.00;3.40;;;;;;;12.09;100.00;95431.47;5036844;28;20582;-69
2023/10/24 04:01:54;;;;;;;7.10;3.30;;;;;;;12.15;100.00;95435.94;5035925;28;20224;-70
2023/10/24 04:04:21;;;;;;;5.53;3.50;;;;;;;12.13;100.00;95433.50;5036400;28;20221;-69
2023/10/24 04:06:47;;;;;;;7.33;4.00;;;;;;;12.09;100.00;95431.47;5035936;28;20213;-68
2023/10/24 04:09:14;;;;;;;6.30;3.50;;;;;;;11.98;100.00;95426.81;5036287;28;20212;-70
2023/10/24 04:11:40;;;;;;;7.00;3.40;;;;;;;11.92;100.00;95430.25;5035179;28;20205;-71
2023/10/24 04:14:08;;;;;;;8.43;4.43;;;;;;;12.00;100.00;95422.94;5036105;28;20233;-68
2023/10/24 04:16:35;;;;;;;8.10;4.00;;;;;;;11.81;100.00;95422.94;5035897;28;20205;-69
2023/10/24 04:19:02;;;;;;;6.67;4.17;;;;;;;11.70;100.00;95426.22;5036185;28;20292;-68
2023/10/24 04:21:28;;;;;;;6.60;3.70;;;;;;;11.81;100.00;95417.66;5036313;28;20255;-71
2023/10/24 04:23:55;;;;;;;7.27;3.93;;;;;;;11.83;100.00;95426.22;5035169;28;20237;-68
2023/10/24 04:26:21;;;;;;;7.47;4.13;;;;;;;11.82;100.00;95424.59;5036043;28;20216;-71
2023/10/24 04:28:48;;;;;;;7.23;3.73;;;;;;;11.75;100.00;95419.31;5035588;28;20592;-69
2023/10/24 04:31:16;;;;;;;6.67;3.53;;;;;;;11.91;100.00;95418.06;5035613;28;20204;-71
2023/10/24 04:33:43;;;;;;;6.80;3.43;;;;;;;11.78;100.00;95408.34;5034498;28;20232;-71
2023/10/24 04:36:11;;;;;;;5.90;3.53;;;;;;;11.73;100.00;95400.22;5035718;28;20725;-71
2023/10/24 04:38:38;;;;;;;8.57;3.43;;;;;;;11.65;100.00;95392.50;5035627;28;20675;-69
2023/10/24 04:41:04;;;;;;;7.57;3.70;;;;;;;11.64;100.00;95390.06;5035235;28;21061;-69
2023/10/24 04:43:31;;;;;;;7.50;4.17;;;;;;;11.48;100.00;95390.47;5035086;28;20211;-71
2023/10/24 04:45:57;;;;;;;6.87;3.93;;;;;;;11.64;100.00;95390.06;5035748;28;20203;-70
2023/10/24 04:48:25;;;;;;;8.43;4.67;;;;;;;11.82;100.00;95379.72;5035517;28;20231;-70
2023/10/24 04:50:52;;;;;;;8.67;5.10;;;;;;;11.72;100.00;95381.94;5034988;28;20201;-70
2023/10/24 04:53:18;;;;;;;9.00;4.47;;;;;;;11.57;100.00;95373.44;5035374;28;20211;-70
2023/10/24 04:55:45;;;;;;;6.63;4.20;;;;;;;11.44;100.00;95369.97;5035291;28;20990;-69
2023/10/24 04:58:13;;;;;;;9.40;4.40;;;;;;;11.63;100.00;95356.78;5034642;28;20204;-69
2023/10/24 05:00:40;;;;;;;8.53;4.07;;;;;;;11.59;100.00;95360.84;5035058;28;20205;-71
2023/10/24 05:03:07;;;;;;;7.63;4.00;;;;;;;11.68;100.00;95357.81;5035308;28;20212;-69
2023/10/24 05:05:35;;;;;;;10.87;4.60;;;;;;;11.91;100.00;95354.72;5034816;28;20225;-69
2023/10/24 05:08:06;;;;;;;7.00;4.20;;;;;;;11.76;100.00;95356.75;5035009;28;20204;-69
2023/10/24 05:10:33;;;;;;;9.83;4.63;;;;;;;11.81;100.00;95344.59;5035128;28;20683;-71
2023/10/24 05:13:00;;;;;;;10.07;5.20;;;;;;;11.76;100.00;95335.66;5034375;28;20213;-70
2023/10/24 05:15:27;;;;;;;10.53;5.07;;;;;;;11.64;100.00;95334.66;5035526;28;20229;-72
2023/10/24 05:17:53;;;;;;;8.57;4.50;;;;;;;11.98;100.00;95337.06;5035327;28;20205;-73
2023/10/24 05:20:20;;;;;;;8.80;4.50;;;;;;;12.15;100.00;95330.28;5034287;28;20201;-70
2023/10/24 05:22:48;;;;;;;8.60;5.10;;;;;;;12.25;100.00;95326.19;5035209;28;20205;-72
2023/10/24 05:25:15;;;;;;;13.73;4.80;;;;;;;12.10;100.00;95332.75;5035239;28;20228;-70
2023/10/24 05:27:41;;;;;;;13.07;4.97;;;;;;;12.19;100.00;95333.13;5035696;28;20209;-72
2023/10/24 05:30:10;;;;;;;11.13;4.23;;;;;;;12.28;100.00;95331.03;5034421;28;21131;-71
2023/10/24 05:32:37;;;;;;;11.13;5.13;;;;;;;12.22;100.00;95316.06;5034963;28;20237;-71
2023/10/24 05:35:04;;;;;;;8.77;5.13;;;;;;;12.03;100.00;95316.91;5035076;28;20919;-71
2023/10/24 05:37:30;;;;;;;8.40;5.07;;;;;;;12.08;100.00;95311.00;5035421;28;20221;-69
2023/10/24 05:39:58;;;;;;;8.63;4.70;;;;;;;12.33;100.00;95313.56;5033996;28;20597;-70
2023/10/24 05:42:25;;;;;;;10.50;4.90;;;;;;;12.21;100.00;95299.38;5034890;28;20675;-73
2023/10/24 05:44:51;;;;;;;8.67;4.87;;;;;;;12.15;100.00;95296.75;5034689;28;20226;-69
2023/10/24 05:47:18;;;;;;;10.13;5.23;;;;;;;12.12;100.00;95284.00;5035230;28;20228;-70
2023/10/24 05:49:44;;;;;;;7.60;4.57;;;;;;;11.96;100.00;95286.28;5034907;28;20201;-70
2023/10/24 05:52:11;;;;;;;8.03;4.97;;;;;;;12.14;100.00;95297.78;5034801;28;20205;-69
2023/10/24 05:54:37;;;;;;;9.37;5.67;;;;;;;12.16;100.00;95296.53;5034810;28;20225;-72
2023/10/24 05:57:05;;;;;;;9.83;4.50;;;;;;;12.23;100.00;95296.50;5035258;28;20216;-70
2023/10/24 05:59:33;;;;;;;8.80;5.10;;;;;;;12.32;100.00;95303.19;5034919;28;20205;-69
2023/10/24 06:02:00;;;;;;;11.10;5.10;;;;;;;12.15;100.00;95286.19;5034712;28;20212;-69
2023/10/24 06:04:34;;;;;;;8.07;4.60;;;;;;;12.11;100.00;95281.56;5034790;28;20248;-69
2023/10/24 06:07:00;;;;;;;8.70;4.47;;;;;;;12.07;100.00;95275.88;5034970;28;20216;-70
2023/10/24 06:09:27;;;;;;;8.43;5.40;;;;;;;12.04;100.00;95260.47;5035093;28;20205;-72
2023/10/24 06:11:53;;;;;;;10.90;4.43;;;;;;;12.01;100.00;95252.94;5035134;28;20675;-72
2023/10/24 06:14:21;;;;;;;11.77;5.27;;;;;;;12.14;100.00;95254.72;5037883;28;20221;-70
2023/10/24 06:16:48;;;;;;;9.07;5.10;;;;;;;12.02;100.00;95251.94;5039048;28;20232;-70
2023/10/24 06:19:14;;;;;;;7.97;4.50;;;;;;;12.02;100.00;95257.22;5038196;28;20211;-70
2023/10/24 06:21:41;;;;;;;11.03;4.77;;;;;;;12.02;100.00;95261.69;5037894;28;20205;-70
2023/10/24 06:24:08;;;;;;;9.80;4.70;;;;;;;12.10;100.00;95264.09;5038489;28;20601;-69
2023/10/24 06:26:34;;;;;;;11.00;5.47;;;;;;;12.08;100.00;95266.09;5038251;28;20318;-69
2023/10/24 06:29:01;;;;;;;8.27;4.80;;;;;;;12.03;100.00;95258.84;5038117;28;20201;-71
2023/10/24 06:31:29;;;;;;;10.63;4.97;;;;;;;12.36;100.00;95270.88;5037106;28;20213;-72
2023/10/24 06:33:56;;;;;;;9.30;4.73;;;;;;;12.14;100.00;95275.84;5037499;28;20322;-72
2023/10/24 06:36:23;;;;;;;15.90;5.30;;;;;;;12.18;100.00;95270.75;5037542;28;20240;-70
2023/10/24 06:38:49;;;;;;;8.00;4.13;;;;;;;12.20;100.00;95271.34;5038082;28;20209;-71
2023/10/24 06:41:16;;;;;;;11.03;5.47;;;;;;;12.24;100.00;95275.22;5037098;28;20212;-69
2023/10/24 06:43:42;;;;;;;8.00;4.77;;;;;;;12.26;100.00;95275.00;5038106;28;20221;-72
2023/10/24 06:46:09;;;;;;;9.50;4.90;;;;;;;12.33;100.00;95260.75;5037634;28;20205;-70
2023/10/24 06:48:37;;;;;;;9.57;4.93;;;;;;;12.46;100.00;95254.53;5037852;28;20205;-68
2023/10/24 06:51:04;;;;;;;8.87;4.90;;;;;;;12.35;100.00;95258.69;5036782;28;20207;-69
2023/10/24 06:53:30;;;;;;;7.73;4.97;;;;;;;12.16;100.00;95267.50;5037556;28;20212;-70
2023/10/24 06:56:01;;;;;;;7.20;4.57;;;;;;;12.45;100.00;95258.25;5037393;28;20221;-70
2023/10/24 06:58:28;;;;;;;8.77;4.63;;;;;;;12.29;100.00;95259.50;5036745;28;20240;-71
2023/10/24 07:00:54;;;;;;;10.57;4.97;;;;;;;12.25;100.00;95276.00;5035768;28;20205;-68
2023/10/24 07:03:21;;;;;;;10.80;4.80;;;;;;;12.45;100.00;95284.66;5036943;28;20409;-69
2023/10/24 07:05:53;;;;;;;8.87;4.87;;;;;;;12.63;100.00;95293.50;5037449;28;20200;-69
2023/10/24 07:08:19;;;;;;;9.93;5.63;;;;;;;12.52;100.00;95283.56;5037163;28;20300;-71
2023/10/24 07:10:46;;;;;;;7.60;4.60;;;;;;;12.54;100.00;95294.75;5037027;28;20581;-69
2023/10/24 07:13:13;;;;;;;11.87;5.20;;;;;;;12.60;100.00;95283.34;5036332;28;20202;-73
2023/10/24 07:15:39;;;;;;;7.23;4.47;;;;;;;12.59;100.00;95286.19;5036331;28;20232;-72
2023/10/24 07:18:06;;;;;;;9.67;5.17;;;;;;;12.66;100.00;95285.13;5037344;28;20566;-69
2023/10/24 07:20:36;;;;;;;10.73;5.63;;;;;;;12.85;100.00;95282.38;5035710;28;20201;-72
2023/10/24 07:23:04;;;;;;;8.97;4.63;;;;;;;12.86;100.00;95291.16;5036346;28;21078;-68
2023/10/24 07:25:31;;;;;;;10.43;5.30;;;;;;;12.71;100.00;95293.22;5036807;28;20213;-72
2023/10/24 07:27:57;;;;;;;8.57;5.00;;;;;;;12.71;100.00;95290.59;5038389;28;20193;-70
2023/10/24 07:30:24;;;;;;;9.60;5.60;;;;;;;12.70;100.00;95288.97;5036588;28;20572;-69
2023/10/24 07:32:53;;;;;;;9.73;5.13;;;;;;;12.78;100.00;95271.03;5036338;28;20664;-70
2023/10/24 07:35:20;;;;;;;10.17;4.67;;;;;;;12.76;100.00;95280.19;5036719;28;20229;-73
2023/10/24 07:37:47;;;;;;;9.03;4.90;;;;;;;12.70;100.00;95272.31;5037101;28;20197;-69
2023/10/24 07:40:15;;;;;;;11.43;4.97;;;;;;;12.92;100.00;95258.56;5036518;28;20201;-69
2023/10/24 07:42:41;;;;;;;8.70;5.03;;;;;;;12.76;100.00;95261.69;5036347;28;20947;-72
2023/10/24 07:45:10;;;;;;;9.97;5.20;;;;;;;12.88;100.00;95263.47;5037415;28;20231;-72
2023/10/24 07:47:37;;;;;;;9.87;5.30;;;;;;;12.91;100.00;95256.94;5036290;28;20226;-70
2023/10/24 07:50:04;;;;;;;8.73;5.07;;;;;;;12.98;100.00;95257.69;5037019;28;20207;-69
2023/10/24 07:52:31;;;;;;;8.07;4.30;;;;;;;12.74;100.00;95260.28;5036708;28;20201;-70
2023/10/24 07:54:57;;;;;;;7.17;4.53;;;;;;;12.85;100.00;95261.22;5036849;28;20221;-70
2023/10/24 07:57:25;;;;;;;8.07;4.97;;;;;;;13.07;100.00;95259.88;5036113;28;20601;-69
2023/10/24 07:59:52;;;;;;;10.23;5.60;;;;;;;12.94;100.00;95254.66;5036059;28;20703;-69
2023/10/24 08:02:18;;;;;;;9.63;4.80;;;;;;;12.89;100.00;95251.88;5036646;28;20193;-70
2023/10/24 08:04:45;;;;;;;12.07;5.60;;;;;;;13.02;100.00;95243.00;5036025;28;20217;-71
2023/10/24 08:07:12;;;;;;;9.83;5.17;;;;;;;13.08;100.00;95242.94;5037024;28;20197;-70
2023/10/24 08:09:38;;;;;;;9.33;5.23;;;;;;;13.14;100.00;95246.59;5036527;28;20207;-70
2023/10/24 08:12:06;;;;;;;7.53;4.73;;;;;;;13.20;100.00;95248.34;5036605;28;20201;-69
2023/10/24 08:14:34;;;;;;;7.00;4.63;;;;;;;13.38;100.00;95243.09;5036447;28;20572;-70
2023/10/24 08:17:00;;;;;;;10.47;5.30;;;;;;;13.12;100.00;95259.22;5036897;28;20802;-70
2023/10/24 08:19:27;;;;;;;9.47;5.10;;;;;;;13.29;100.00;95252.34;5035637;28;20201;-69
2023/10/24 08:21:53;;;;;;;8.20;5.10;;;;;;;13.29;100.00;95247.06;5036025;28;20220;-71
2023/10/24 08:24:21;;;;;;;11.83;5.40;;;;;;;13.41;100.00;95246.94;5033041;28;20257;-71
2023/10/24 08:26:47;;;;;;;10.37;5.97;;;;;;;13.35;100.00;95252.28;5033942;28;20205;-71
2023/10/24 08:29:14;;;;;;;9.00;5.30;;;;;;;13.35;100.00;95260.22;5034729;28;20205;-73
2023/10/24 08:31:42;;;;;;;9.27;5.40;;;;;;;13.53;100.00;95245.19;5034224;28;20193;-69
2023/10/24 08:34:08;;;;;;;10.33;5.80;;;;;;;13.43;100.00;95244.09;5034095;28;20243;-69
2023/10/24 08:36:35;;;;;;;10.43;5.57;;;;;;;13.42;100.00;95248.56;5035083;28;20244;-69
2023/10/24 08:39:01;;;;;;;9.23;5.43;;;;;;;13.45;100.00;95248.13;5035123;28;20198;-70
2023/10/24 08:41:29;;;;;;;10.80;6.00;;;;;;;13.22;100.00;95246.31;5033657;28;20197;-69
2023/10/24 08:43:56;;;;;;;10.27;5.33;;;;;;;13.52;100.00;95245.44;5034303;28;20232;-71
2023/10/24 08:46:24;;;;;;;10.17;5.27;;;;;;;13.52;100.00;95242.78;5034875;28;20197;-70
2023/10/24 08:48:53;;;;;;;10.17;5.00;;;;;;;13.50;100.00;95252.75;5034466;28;20201;-69
2023/10/24 08:51:20;;;;;;;9.80;5.33;;;;;;;13.46;100.00;95257.66;5033887;28;20289;-72
2023/10/24 08:53:46;;;;;;;11.10;5.87;;;;;;;13.42;100.00;95251.19;5034459;28;20224;-69
2023/10/24 08:56:13;;;;;;;10.37;5.47;;;;;;;13.33;100.00;95246.41;5034445;28;20244;-72
2023/10/24 08:58:41;;;;;;;10.10;5.03;;;;;;;13.61;100.00;95249.41;5034458;28;20201;-70
2023/10/24 09:01:09;;;;;;;8.87;4.97;;;;;;;13.53;100.00;95252.31;5035187;28;20201;-71
2023/10/24 09:03:37;;;;;;;10.17;5.87;;;;;;;13.53;100.00;95250.50;5034171;28;20209;-69
2023/10/24 09:06:07;;;;;;;10.33;5.67;;;;;;;13.63;100.00;95260.56;5035308;28;20212;-70
2023/10/24 09:08:34;;;;;;;9.83;5.37;;;;;;;13.53;100.00;95261.09;5035355;28;20235;-71
2023/10/24 09:11:00;;;;;;;10.20;5.20;;;;;;;13.47;100.00;95267.25;5035174;28;20217;-71
2023/10/24 09:13:27;;;;;;;10.63;5.17;;;;;;;13.52;100.00;95267.41;5035374;28;20202;-70
2023/10/24 09:16:15;;;;;;;10.93;5.40;;;;;;;13.94;100.00;95265.72;5034302;28;20703;-69
2023/10/24 09:18:42;;;;;;;10.13;5.73;;;;;;;13.73;100.00;95263.53;5030893;28;20210;-69
2023/10/24 09:21:10;;;;;;;12.03;6.00;;;;;;;13.91;100.00;95264.34;5034382;28;20215;-70
2023/10/24 09:23:37;;;;;;;11.67;6.30;;;;;;;13.85;100.00;95252.00;5035202;28;20205;-69
2023/10/24 09:26:05;;;;;;;23.87;11.13;;;;;;;13.74;100.00;95262.50;5034120;28;20207;-72
2023/10/24 09:28:33;;;;;;;14.10;6.57;;;;;;;13.72;100.00;95254.78;5034819;28;20201;-72
2023/10/24 09:31:00;;;;;;;10.23;6.07;;;;;;;13.89;100.00;95258.47;5033750;28;20208;-69
2023/10/24 09:33:27;;;;;;;11.63;6.23;;;;;;;13.74;100.00;95258.00;5035700;28;20201;-72
2023/10/24 09:35:54;;;;;;;8.73;5.00;;;;;;;13.81;100.00;95268.53;5035829;28;20193;-69
2023/10/24 09:38:24;;;;;;;10.50;6.17;;;;;;;14.07;100.00;95263.75;5035293;28;20205;-70
2023/10/24 09:40:52;;;;;;;8.47;4.87;;;;;;;13.85;100.00;95259.94;5035378;28;20300;-71
2023/10/24 09:43:22;;;;;;;8.37;5.20;;;;;;;13.97;100.00;95255.50;5037111;28;20201;-69
2023/10/24 09:45:50;;;;;;;8.57;4.93;;;;;;;14.02;100.00;95250.38;5037466;28;20204;-69
2023/10/24 09:48:17;;;;;;;14.47;6.00;;;;;;;13.88;100.00;95254.19;5039554;28;20212;-69
2023/10/24 09:50:45;;;;;;;8.60;5.33;;;;;;;13.93;100.00;95246.41;5038812;28;20197;-70
2023/10/24 09:53:12;;;;;;;11.37;6.23;;;;;;;13.98;100.00;95245.75;5041449;28;20292;-69
2023/10/24 09:55:41;;;;;;;10.30;5.93;;;;;;;14.04;100.00;95243.81;5039126;28;20286;-70
2023/10/24 09:58:09;;;;;;;10.47;5.60;;;;;;;14.01;100.00;95238.16;5038243;28;20253;-69
2023/10/24 10:00:36;;;;;;;10.97;5.40;;;;;;;13.92;100.00;95250.06;5038568;28;21292;-69
2023/10/24 10:03:04;;;;;;;10.23;5.40;;;;;;;13.93;100.00;95238.44;5039114;28;20201;-72
2023/10/24 10:05:31;;;;;;;8.57;5.13;;;;;;;13.88;100.00;95246.25;5039340;28;20221;-69
2023/10/24 10:08:01;;;;;;;15.57;5.10;;;;;;;13.81;100.00;95244.69;5038733;28;20577;-69
2023/10/24 10:10:31;;;;;;;11.27;5.43;;;;;;;13.72;100.00;95254.78;5038640;28;20204;-69
2023/10/24 10:13:02;;;;;;;11.33;5.37;;;;;;;13.87;100.00;95260.50;5039118;28;21080;-69
2023/10/24 10:15:47;;;;;;;10.63;6.00;;;;;;;13.89;100.00;95268.25;5038514;28;20247;-71
2023/10/24 10:18:25;;;;;;;15.80;6.27;;;;;;;13.95;100.00;95262.91;5038711;28;20217;-70
2023/10/24 10:21:01;;;;;;;9.47;5.03;;;;;;;13.96;100.00;95267.13;5038641;28;20205;-71
2023/10/24 10:23:43;;;;;;;9.50;5.33;;;;;;;14.01;100.00;95251.38;5038863;28;20287;-70
2023/10/24 10:26:20;;;;;;;10.30;5.80;;;;;;;13.55;100.00;95261.66;5039772;28;20201;-70
2023/10/24 10:29:08;;;;;;;13.87;6.40;;;;;;;13.66;100.00;95249.56;5038650;28;20212;-69
2023/10/24 10:31:58;;;;;;;9.73;5.77;;;;;;;13.35;100.00;95257.56;5038368;28;20209;-72
2023/10/24 10:34:36;;;;;;;9.63;5.60;;;;;;;13.32;100.00;95257.22;5038210;28;20238;-69
2023/10/24 10:37:03;;;;;;;12.80;6.37;;;;;;;13.16;100.00;95252.47;5038048;28;20225;-71
2023/10/24 10:39:30;;;;;;;11.07;6.07;;;;;;;12.97;100.00;95254.25;5038005;28;20200;-72
2023/10/24 10:41:57;;;;;;;9.90;5.90;;;;;;;13.20;100.00;95243.06;5036393;28;20251;-70
2023/10/24 10:44:41;;;;;;;11.77;5.93;;;;;;;13.27;100.00;95243.84;5037114;28;20343;-68
2023/10/24 10:47:08;;;;;;;9.87;5.93;;;;;;;13.22;100.00;95241.81;5036977;28;20272;-71
2023/10/24 10:49:40;;;;;;;11.60;6.70;;;;;;;13.56;100.00;95239.47;5037103;28;20205;-69
2023/10/24 10:52:17;;;;;;;12.30;6.50;;;;;;;13.53;100.00;95245.19;5036923;28;20205;-72
2023/10/24 10:54:49;;;;;;;14.00;7.17;;;;;;;13.51;100.00;95231.38;5038286;28;20577;-68
2023/10/24 10:57:20;;;;;;;14.03;6.53;;;;;;;13.65;100.00;95226.75;5037322;28;20221;-71
2023/10/24 10:59:54;;;;;;;12.80;6.67;;;;;;;13.65;100.00;95221.47;5036935;28;20205;-72
2023/10/24 11:02:37;;;;;;;13.20;7.10;;;;;;;13.67;100.00;95217.56;5038841;28;20212;-72
2023/10/24 11:05:47;;;;;;;13.37;7.23;;;;;;;13.72;100.00;95216.91;5038084;28;20232;-72
2023/10/24 11:08:18;;;;;;;15.93;7.47;;;;;;;13.74;100.00;95210.34;5037087;28;20201;-72
2023/10/24 11:11:07;;;;;;;13.80;7.20;;;;;;;13.94;100.00;95215.41;5037510;28;20209;-69
2023/10/24 11:13:40;;;;;;;13.40;6.67;;;;;;;13.88;100.00;95218.97;5032353;28;20755;-69
2023/10/24 11:16:09;;;;;;;13.57;7.47;;;;;;;13.96;100.00;95214.16;5037766;28;20208;-70
2023/10/24 11:18:36;;;;;;;13.03;6.73;;;;;;;13.80;100.00;95209.47;5036821;28;20296;-70
2023/10/24 11:21:05;;;;;;;13.20;7.23;;;;;;;14.00;100.00;95202.09;5036716;28;20283;-69
2023/10/24 11:23:32;;;;;;;16.63;7.37;;;;;;;13.94;100.00;95203.00;5037272;28;20201;-72
2023/10/24 11:25:59;;;;;;;13.80;7.20;;;;;;;14.03;100.00;95199.81;5037640;28;20259;-69